createdAt,value
2022-09-06T00:01:40.325Z,20.33
2022-09-06T00:04:26.353Z,20.30
2022-09-06T00:07:12.652Z,20.26
2022-09-06T00:09:58.709Z,20.27
2022-09-06T00:12:44.736Z,20.24
2022-09-06T00:15:31.004Z,20.16
2022-09-06T00:18:17.181Z,20.13
2022-09-06T00:21:04.511Z,20.19
2022-09-06T00:23:50.970Z,19.97
2022-09-06T00:26:36.840Z,20.23
2022-09-06T00:29:22.846Z,20.17
2022-09-06T00:32:09.152Z,20.13
2022-09-06T00:34:55.400Z,20.16
2022-09-06T00:37:41.321Z,20.13
2022-09-06T00:40:29.546Z,20.15
2022-09-06T00:43:15.718Z,20.10
2022-09-06T00:46:02.610Z,20.11
2022-09-06T00:48:50.595Z,20.12
2022-09-06T00:51:37.195Z,19.96
2022-09-06T00:54:23.605Z,19.96
2022-09-06T00:57:10.434Z,20.04
2022-09-06T00:59:56.778Z,20.05
2022-09-06T01:02:43.550Z,20.02
2022-09-06T01:05:39.441Z,19.93
2022-09-06T01:08:51.373Z,19.93
2022-09-06T01:11:55.952Z,19.98
2022-09-06T01:15:09.761Z,19.81
2022-09-06T01:18:01.937Z,19.88
2022-09-06T01:21:06.272Z,19.83
2022-09-06T01:23:59.471Z,19.86
2022-09-06T01:27:03.899Z,19.86
2022-09-06T01:30:02.310Z,19.67
2022-09-06T01:33:07.281Z,19.74
2022-09-06T01:36:01.195Z,19.75
2022-09-06T01:38:47.096Z,19.71
2022-09-06T01:41:33.194Z,19.68
2022-09-06T01:44:20.206Z,19.67
2022-09-06T01:47:31.015Z,19.61
2022-09-06T01:50:35.528Z,19.38
2022-09-06T01:53:46.696Z,19.46
2022-09-06T01:57:07.974Z,19.47
2022-09-06T01:59:53.932Z,19.49
2022-09-06T02:03:10.808Z,19.43
2022-09-06T02:06:15.312Z,19.38
2022-09-06T02:09:06.856Z,19.38
2022-09-06T02:12:01.113Z,19.41
2022-09-06T02:14:54.660Z,19.33
2022-09-06T02:17:45.607Z,19.48
2022-09-06T02:20:34.220Z,19.45
2022-09-06T02:23:24.552Z,19.43
2022-09-06T02:26:20.900Z,19.50
2022-09-06T02:29:07.066Z,19.54
2022-09-06T02:31:59.689Z,19.38
2022-09-06T02:34:46.325Z,19.47
2022-09-06T02:37:32.791Z,19.49
2022-09-06T02:40:18.917Z,19.51
2022-09-06T02:43:04.956Z,19.52
2022-09-06T02:45:50.989Z,19.52
2022-09-06T02:48:37.352Z,19.52
2022-09-06T02:51:23.757Z,19.54
2022-09-06T02:54:09.857Z,19.43
2022-09-06T02:56:55.862Z,19.50
2022-09-06T02:59:41.967Z,19.48
2022-09-06T03:02:27.836Z,19.53
2022-09-06T03:05:13.710Z,19.48
2022-09-06T03:07:59.836Z,19.48
2022-09-06T03:10:52.960Z,19.50
2022-09-06T03:13:39.087Z,19.49
2022-09-06T03:16:25.126Z,19.44
2022-09-06T03:19:11.472Z,19.40
2022-09-06T03:21:57.487Z,19.52
2022-09-06T03:24:43.889Z,19.49
2022-09-06T03:27:29.820Z,19.51
2022-09-06T03:30:16.073Z,19.49
2022-09-06T03:33:03.058Z,19.47
2022-09-06T03:35:53.875Z,19.38
2022-09-06T03:38:40.191Z,19.50
2022-09-06T03:41:26.316Z,19.45
2022-09-06T03:44:12.392Z,19.48
2022-09-06T03:46:58.805Z,19.50
2022-09-06T03:49:45.408Z,19.44
2022-09-06T03:52:31.723Z,19.47
2022-09-06T03:55:17.915Z,19.52
2022-09-06T03:58:04.221Z,19.50
2022-09-06T04:00:54.198Z,19.39
2022-09-06T04:03:40.352Z,19.44
2022-09-06T04:06:26.472Z,19.43
2022-09-06T04:09:12.451Z,19.44
2022-09-06T04:11:58.597Z,19.43
2022-09-06T04:14:44.622Z,19.38
2022-09-06T04:17:30.521Z,19.41
2022-09-06T04:20:17.462Z,19.34
2022-09-06T04:23:04.119Z,19.27
2022-09-06T04:25:52.463Z,19.36
2022-09-06T04:28:38.523Z,19.29
2022-09-06T04:31:24.617Z,19.24
2022-09-06T04:34:10.509Z,19.30
2022-09-06T04:36:56.647Z,19.32
2022-09-06T04:39:43.008Z,19.30
2022-09-06T04:42:29.312Z,19.34
2022-09-06T04:45:15.460Z,19.31
2022-09-06T04:48:02.105Z,19.31
2022-09-06T04:50:48.303Z,19.30
2022-09-06T04:53:34.215Z,19.28
2022-09-06T04:56:22.449Z,19.30
2022-09-06T04:59:08.564Z,19.26
2022-09-06T05:01:55.287Z,19.25
2022-09-06T05:04:41.180Z,19.28
2022-09-06T05:07:27.033Z,19.23
2022-09-06T05:10:12.917Z,19.26
2022-09-06T05:12:58.677Z,19.25
2022-09-06T05:15:44.835Z,19.30
2022-09-06T05:18:31.334Z,19.32
2022-09-06T05:21:17.359Z,19.24
2022-09-06T05:24:03.541Z,19.31
2022-09-06T05:26:49.534Z,19.39
2022-09-06T05:29:35.338Z,19.31
2022-09-06T05:32:21.157Z,19.40
2022-09-06T05:35:07.357Z,19.44
2022-09-06T05:37:53.403Z,19.51
2022-09-06T05:40:39.430Z,19.47
2022-09-06T05:43:25.277Z,19.58
2022-09-06T05:46:11.664Z,19.63
2022-09-06T05:49:04.819Z,19.65
2022-09-06T05:51:52.213Z,19.75
2022-09-06T05:54:38.773Z,19.83
2022-09-06T06:07:35.726Z,18.91
2022-09-06T06:10:21.981Z,19.06
2022-09-06T06:13:07.949Z,19.22
2022-09-06T06:15:53.868Z,19.40
2022-09-06T06:18:40.041Z,19.46
2022-09-06T06:21:28.839Z,19.75
2022-09-06T06:24:14.875Z,19.80
2022-09-06T06:27:00.803Z,19.96
2022-09-06T06:29:46.752Z,20.09
2022-09-06T06:32:32.594Z,20.16
2022-09-06T06:35:18.402Z,20.30
2022-09-06T06:38:04.325Z,20.24
2022-09-06T06:40:50.127Z,20.38
2022-09-06T06:43:37.774Z,20.55
2022-09-06T06:46:26.588Z,20.52
2022-09-06T06:49:12.581Z,20.53
2022-09-06T06:51:58.326Z,20.76
2022-09-06T06:54:44.315Z,20.82
2022-09-06T06:57:30.152Z,20.88
2022-09-06T07:00:16.307Z,20.90
2022-09-06T07:03:02.509Z,20.93
2022-09-06T07:08:57.082Z,21.09
2022-09-06T07:11:43.417Z,21.04
2022-09-06T07:14:29.641Z,21.10
2022-09-06T07:17:15.469Z,21.26
2022-09-06T07:20:17.136Z,21.36
2022-09-06T07:26:16.288Z,21.41
2022-09-06T07:29:04.531Z,21.45
2022-09-06T07:34:57.277Z,21.54
2022-09-06T07:37:43.495Z,21.64
2022-09-06T07:40:30.848Z,21.72
2022-09-06T07:43:16.986Z,21.69
2022-09-06T07:46:06.131Z,21.86
2022-09-06T07:48:52.473Z,21.89
2022-09-06T07:51:38.619Z,21.94
2022-09-06T07:54:31.866Z,22.01
2022-09-06T07:57:18.109Z,22.02
2022-09-06T08:00:05.149Z,22.05
2022-09-06T08:02:57.723Z,22.15
2022-09-06T08:08:58.195Z,22.16
2022-09-06T08:11:44.589Z,22.35
2022-09-06T08:14:30.510Z,22.41
2022-09-06T08:17:16.589Z,22.45
2022-09-06T08:20:04.109Z,22.47
2022-09-06T08:22:50.412Z,22.56
2022-09-06T08:25:36.380Z,22.55
2022-09-06T08:28:25.605Z,22.74
2022-09-06T08:31:16.066Z,22.78
2022-09-06T08:34:03.872Z,22.81
2022-09-06T08:36:49.857Z,22.98
2022-09-06T08:39:35.746Z,23.00
2022-09-06T08:42:21.622Z,22.92
2022-09-06T08:45:16.724Z,23.13
2022-09-06T08:48:03.321Z,23.12
2022-09-06T08:50:59.910Z,23.18
2022-09-06T08:53:52.990Z,23.04
2022-09-06T08:57:11.269Z,23.34
2022-09-06T09:00:01.489Z,23.38
2022-09-06T09:02:51.819Z,23.48
2022-09-06T09:05:40.061Z,23.37
2022-09-06T09:08:29.324Z,23.62
2022-09-06T09:11:18.758Z,23.57
2022-09-06T09:14:19.222Z,23.71
2022-09-06T09:17:15.734Z,23.76
2022-09-06T09:20:02.216Z,23.88
2022-09-06T09:22:48.938Z,23.90
2022-09-06T09:25:36.378Z,24.05
2022-09-06T09:28:25.943Z,24.14
2022-09-06T09:31:14.362Z,24.22
2022-09-06T09:34:04.721Z,24.22
2022-09-06T09:40:57.135Z,24.36
2022-09-06T09:43:57.768Z,24.44
2022-09-06T09:46:45.769Z,24.12
2022-09-06T09:49:32.616Z,24.48
2022-09-06T09:52:27.646Z,24.19
2022-09-06T09:55:13.637Z,24.57
2022-09-06T09:57:59.593Z,24.62
2022-09-06T10:00:45.597Z,24.77
2022-09-06T10:03:31.393Z,24.83
2022-09-06T10:09:35.978Z,24.92
2022-09-06T10:12:34.286Z,24.88
2022-09-06T10:15:53.718Z,24.63
2022-09-06T10:18:44.009Z,25.01
2022-09-06T10:21:30.285Z,25.16
2022-09-06T10:24:31.987Z,25.23
2022-09-06T10:27:26.267Z,25.02
2022-09-06T10:30:14.555Z,25.35
2022-09-06T10:33:23.792Z,25.10
2022-09-06T10:36:10.126Z,25.39
2022-09-06T10:39:04.257Z,25.32
2022-09-06T10:41:50.358Z,25.46
2022-09-06T10:44:45.727Z,25.61
2022-09-06T10:47:38.058Z,25.58
2022-09-06T10:50:54.747Z,25.59
2022-09-06T10:53:54.898Z,25.65
2022-09-06T10:57:09.336Z,25.80
2022-09-06T11:00:15.603Z,25.92
2022-09-06T11:06:13.907Z,25.89
2022-09-06T11:09:12.037Z,25.96
2022-09-06T11:12:09.668Z,26.17
2022-09-06T11:14:55.837Z,26.07
2022-09-06T11:18:06.609Z,25.92
2022-09-06T11:21:25.377Z,26.16
2022-09-06T11:24:16.026Z,26.13
2022-09-06T11:27:06.553Z,26.33
2022-09-06T11:29:56.605Z,26.32
2022-09-06T11:32:48.593Z,26.37
2022-09-06T11:35:35.054Z,26.48
2022-09-06T11:38:25.155Z,26.33
2022-09-06T11:41:16.265Z,26.28
2022-09-06T11:44:03.006Z,26.27
2022-09-06T11:46:49.120Z,26.36
2022-09-06T11:49:37.349Z,26.53
2022-09-06T11:52:49.254Z,26.48
2022-09-06T11:55:45.668Z,26.63
2022-09-06T11:58:51.019Z,26.64
2022-09-06T12:01:37.891Z,26.72
2022-09-06T12:04:23.881Z,26.79
2022-09-06T12:07:11.996Z,26.78
2022-09-06T12:10:01.733Z,26.95
2022-09-06T12:12:52.617Z,26.98
2022-09-06T12:15:46.405Z,26.69
2022-09-06T12:18:47.896Z,26.95
2022-09-06T12:21:38.274Z,27.10
2022-09-06T12:24:36.542Z,27.22
2022-09-06T12:27:24.063Z,27.36
2022-09-06T12:30:12.476Z,27.34
2022-09-06T12:32:58.756Z,27.40
2022-09-06T12:38:39.645Z,27.53
2022-09-06T12:41:28.553Z,27.56
2022-09-06T12:44:15.788Z,27.39
2022-09-06T12:47:10.878Z,27.44
2022-09-06T12:50:21.336Z,27.40
2022-09-06T12:53:24.642Z,27.37
2022-09-06T12:56:14.369Z,27.42
2022-09-06T12:59:17.730Z,27.34
2022-09-06T13:02:08.944Z,27.30
2022-09-06T13:05:06.856Z,27.30
2022-09-06T13:07:59.597Z,27.24
2022-09-06T13:10:47.542Z,27.12
2022-09-06T13:13:33.773Z,27.31
2022-09-06T13:16:21.171Z,27.30
2022-09-06T13:19:15.772Z,27.40
2022-09-06T13:22:03.998Z,27.46
2022-09-06T13:24:56.105Z,27.51
2022-09-06T13:27:46.165Z,27.54
2022-09-06T13:30:49.041Z,27.62
2022-09-06T13:33:37.710Z,27.84
2022-09-06T13:36:33.921Z,27.85
2022-09-06T13:39:49.271Z,27.85
2022-09-06T13:42:36.731Z,27.97
2022-09-06T13:45:29.943Z,28.03
2022-09-06T13:48:28.685Z,28.03
2022-09-06T13:51:15.555Z,28.12
2022-09-06T13:54:08.792Z,28.15
2022-09-06T13:56:55.457Z,28.09
2022-09-06T13:59:42.842Z,28.10
2022-09-06T14:02:29.046Z,28.10
2022-09-06T14:05:14.992Z,28.15
2022-09-06T14:08:01.231Z,28.10
2022-09-06T14:10:48.350Z,28.04
2022-09-06T14:13:34.404Z,27.99
2022-09-06T14:16:20.772Z,27.89
2022-09-06T14:19:06.884Z,27.82
2022-09-06T14:21:52.938Z,27.81
2022-09-06T14:24:39.342Z,27.79
2022-09-06T14:27:25.417Z,27.69
2022-09-06T14:30:11.990Z,27.94
2022-09-06T14:32:58.009Z,27.90
2022-09-06T14:35:43.818Z,27.93
2022-09-06T14:38:29.820Z,27.92
2022-09-06T14:41:17.759Z,28.04
2022-09-06T14:44:04.242Z,27.99
2022-09-06T14:46:53.463Z,28.08
2022-09-06T14:49:39.657Z,28.28
2022-09-06T14:52:25.570Z,28.39
2022-09-06T14:55:12.540Z,28.54
2022-09-06T14:57:59.413Z,28.76
2022-09-06T15:00:46.709Z,28.92
2022-09-06T15:03:34.597Z,29.08
2022-09-06T15:06:22.150Z,29.33
2022-09-06T15:09:08.248Z,29.53
2022-09-06T15:11:54.641Z,29.67
2022-09-06T15:14:41.296Z,29.80
2022-09-06T15:17:27.232Z,30.01
2022-09-06T15:20:13.305Z,30.09
2022-09-06T15:23:15.135Z,30.21
2022-09-06T15:26:08.316Z,30.34
2022-09-06T15:28:54.606Z,30.39
2022-09-06T15:31:41.961Z,30.50
2022-09-06T15:34:28.142Z,30.62
2022-09-06T15:37:13.959Z,30.71
2022-09-06T15:40:00.128Z,30.72
2022-09-06T15:42:46.428Z,30.75
2022-09-06T15:45:46.819Z,30.85
2022-09-06T15:48:43.594Z,30.76
2022-09-06T15:51:29.588Z,30.81
2022-09-06T15:54:18.173Z,30.77
2022-09-06T15:57:05.133Z,30.74
2022-09-06T15:59:51.150Z,30.72
2022-09-06T16:02:37.237Z,30.76
2022-09-06T16:08:29.770Z,30.52
2022-09-06T16:11:17.029Z,30.42
2022-09-06T16:14:05.400Z,30.25
2022-09-06T16:16:54.530Z,30.16
2022-09-06T16:19:40.862Z,30.03
2022-09-06T16:22:26.752Z,29.88
2022-09-06T16:25:12.662Z,29.72
2022-09-06T16:27:58.724Z,29.46
2022-09-06T16:30:45.034Z,29.39
2022-09-06T16:33:32.529Z,29.23
2022-09-06T16:36:19.304Z,28.92
2022-09-06T16:39:06.231Z,28.79
2022-09-06T16:41:52.607Z,28.77
2022-09-06T16:44:38.760Z,28.60
2022-09-06T16:47:25.227Z,28.46
2022-09-06T16:50:11.761Z,28.20
2022-09-06T16:52:58.453Z,28.23
2022-09-06T16:55:44.623Z,28.09
2022-09-06T16:58:31.297Z,27.88
2022-09-06T17:01:17.982Z,27.90
2022-09-06T17:04:05.839Z,27.73
2022-09-06T17:06:51.888Z,27.63
2022-09-06T17:09:37.977Z,27.49
2022-09-06T17:12:24.420Z,27.36
2022-09-06T17:15:10.896Z,27.22
2022-09-06T17:17:57.070Z,27.11
2022-09-06T17:20:54.837Z,26.96
2022-09-06T17:23:41.044Z,26.80
2022-09-06T17:26:27.370Z,26.73
2022-09-06T17:29:13.399Z,26.61
2022-09-06T17:32:00.383Z,26.53
2022-09-06T17:34:46.641Z,26.26
2022-09-06T17:37:33.563Z,26.27
2022-09-06T17:40:20.182Z,26.13
2022-09-06T17:43:06.917Z,26.04
2022-09-06T17:45:53.038Z,25.94
2022-09-06T17:48:39.375Z,25.75
2022-09-06T17:51:26.191Z,25.75
2022-09-06T17:54:13.317Z,25.67
2022-09-06T17:56:59.236Z,25.55
2022-09-06T17:59:45.493Z,25.34
2022-09-06T18:02:31.416Z,25.37
2022-09-06T18:05:18.110Z,25.28
2022-09-06T18:08:04.122Z,25.17
2022-09-06T18:10:50.610Z,24.95
2022-09-06T18:13:36.817Z,24.90
2022-09-06T18:16:23.089Z,24.82
2022-09-06T18:19:09.353Z,24.76
2022-09-06T18:21:57.322Z,24.68
2022-09-06T18:24:44.159Z,24.59
2022-09-06T18:27:30.190Z,24.47
2022-09-06T18:30:16.411Z,24.43
2022-09-06T18:33:02.741Z,24.27
2022-09-06T18:35:50.515Z,24.24
2022-09-06T18:38:38.620Z,24.17
2022-09-06T18:41:42.982Z,23.97
2022-09-06T18:44:33.134Z,23.98
2022-09-06T18:47:19.623Z,23.86
2022-09-06T18:50:08.258Z,23.82
2022-09-06T18:52:55.291Z,23.69
2022-09-06T18:55:43.309Z,23.67
2022-09-06T18:58:29.527Z,23.63
2022-09-06T19:01:17.996Z,23.56
2022-09-06T19:04:05.657Z,23.46
2022-09-06T19:06:52.230Z,23.40
2022-09-06T19:09:38.724Z,23.32
2022-09-06T19:12:25.067Z,23.19
2022-09-06T19:15:13.835Z,23.16
2022-09-06T19:18:00.411Z,23.18
2022-09-06T19:20:57.232Z,23.09
2022-09-06T19:23:45.362Z,23.07
2022-09-06T19:26:34.419Z,23.00
2022-09-06T19:29:21.018Z,23.01
2022-09-06T19:32:07.635Z,22.84
2022-09-06T19:34:53.923Z,22.88
2022-09-06T19:37:40.247Z,22.84
2022-09-06T19:40:26.357Z,22.79
2022-09-06T19:43:12.460Z,22.75
2022-09-06T19:46:05.649Z,22.59
2022-09-06T19:48:52.600Z,22.63
2022-09-06T19:51:39.665Z,22.45
2022-09-06T19:54:25.761Z,22.51
2022-09-06T19:57:12.057Z,22.47
2022-09-06T19:59:57.972Z,22.42
2022-09-06T20:02:44.208Z,22.24
2022-09-06T20:05:29.998Z,22.31
2022-09-06T20:08:16.062Z,22.29
2022-09-06T20:11:03.403Z,22.21
2022-09-06T20:13:49.523Z,22.08
2022-09-06T20:16:40.681Z,22.08
2022-09-06T20:19:27.765Z,21.98
2022-09-06T20:22:13.832Z,21.99
2022-09-06T20:24:59.855Z,21.97
2022-09-06T20:27:46.143Z,21.91
2022-09-06T20:30:32.076Z,21.70
2022-09-06T20:33:18.323Z,21.76
2022-09-06T20:36:06.249Z,21.72
2022-09-06T20:38:52.341Z,21.54
2022-09-06T20:41:38.602Z,21.51
2022-09-06T20:44:24.535Z,21.45
2022-09-06T20:47:10.375Z,21.42
2022-09-06T20:49:56.150Z,21.31
2022-09-06T20:52:42.305Z,21.35
2022-09-06T20:55:28.419Z,21.34
2022-09-06T20:58:14.323Z,21.30
2022-09-06T21:01:00.346Z,21.20
2022-09-06T21:03:46.498Z,21.17
2022-09-06T21:06:36.659Z,21.22
2022-09-06T21:09:22.937Z,21.07
2022-09-06T21:12:08.912Z,21.10
2022-09-06T21:14:55.159Z,21.03
2022-09-06T21:17:41.130Z,21.04
2022-09-06T21:20:26.874Z,21.02
2022-09-06T21:23:12.810Z,20.88
2022-09-06T21:26:10.270Z,20.95
2022-09-06T21:28:56.238Z,20.94
2022-09-06T21:31:42.507Z,20.91
2022-09-06T21:34:28.874Z,20.86
2022-09-06T21:37:14.871Z,20.85
2022-09-06T21:40:00.733Z,20.82
2022-09-06T21:42:47.237Z,20.79
2022-09-06T21:45:38.180Z,20.70
2022-09-06T21:48:24.534Z,20.69
2022-09-06T21:51:15.606Z,20.62
2022-09-06T21:54:05.096Z,20.66
2022-09-06T21:56:51.344Z,20.55
2022-09-06T21:59:37.315Z,20.60
2022-09-06T22:02:23.668Z,20.57
2022-09-06T22:05:10.042Z,20.57
2022-09-06T22:07:56.094Z,20.06
2022-09-06T22:10:42.164Z,20.21
2022-09-06T22:13:28.315Z,20.13
2022-09-06T22:16:15.732Z,20.14
2022-09-06T22:19:02.197Z,20.15
2022-09-06T22:21:48.591Z,20.14
2022-09-06T22:24:34.883Z,20.20
2022-09-06T22:27:20.823Z,20.11
2022-09-06T22:30:07.254Z,20.06
2022-09-06T22:32:53.777Z,20.09
2022-09-06T22:35:40.149Z,19.92
2022-09-06T22:38:27.345Z,20.03
2022-09-06T22:41:13.521Z,19.98
2022-09-06T22:44:03.736Z,20.02
2022-09-06T22:46:50.012Z,19.94
2022-09-06T22:49:36.122Z,19.86
2022-09-06T22:52:21.960Z,19.92
2022-09-06T22:55:08.341Z,19.93
2022-09-06T22:57:54.498Z,19.87
2022-09-06T23:00:40.473Z,19.82
2022-09-06T23:03:26.356Z,19.84
2022-09-06T23:06:12.676Z,19.84
2022-09-06T23:08:58.805Z,19.77
2022-09-06T23:11:45.377Z,19.78
2022-09-06T23:14:31.428Z,19.75
2022-09-06T23:17:17.451Z,19.62
2022-09-06T23:20:04.027Z,19.59
2022-09-06T23:22:50.119Z,19.61
2022-09-06T23:25:39.370Z,19.59
2022-09-06T23:28:25.463Z,19.64
2022-09-06T23:31:14.681Z,19.56
2022-09-06T23:34:01.568Z,19.62
2022-09-06T23:36:48.106Z,19.56
2022-09-06T23:39:34.210Z,19.55
2022-09-06T23:42:21.115Z,19.51
2022-09-06T23:45:07.362Z,19.48
2022-09-06T23:47:53.306Z,19.36
2022-09-06T23:50:39.449Z,19.30
2022-09-06T23:53:25.841Z,19.37
2022-09-06T23:56:12.352Z,19.37
2022-09-06T23:58:58.498Z,19.31
